This is the latest recevied weather packets stored in our database for station/object AJ7DN. If no packets are shown the sender has not sent any weather packets the latest 1 day(s).
| Time | Temp. | Humidity | Pressure | Rain* | Wind** | Luminosity | Snow |
|---|---|---|---|---|---|---|---|
| 1778014022 | 18.89° C | 68% | 1020.8 hPa | 0 mm | 0 m/s | 344 W/m² | - |
| 1778013721 | 17.78° C | 69% | 1020.5 hPa | 0 mm | 0 m/s | 273 W/m² | - |
| 1778013418 | 17.22° C | 70% | 1020.8 hPa | 0 mm | 0 m/s | 302 W/m² | - |
| 1778013114 | 17.78° C | 70% | 1020.9 hPa | 0 mm | 1.34 m/s, 227° | 278 W/m² | - |
| 1778012810 | 17.78° C | 71% | 1020.9 hPa | 0 mm | 0 m/s | 247 W/m² | - |
| 1778012506 | 17.22° C | 70% | 1020.9 hPa | 0 mm | 0.45 m/s, 21° | 256 W/m² | - |
| 1778012203 | 17.78° C | 69% | 1021.1 hPa | 0 mm | 0 m/s | 254 W/m² | - |
| 1778011901 | 17.22° C | 72% | 1021 hPa | 0 mm | 0 m/s | 263 W/m² | - |
| 1778011599 | 17.22° C | 72% | 1021.1 hPa | 0 mm | 0.45 m/s, 248° | 252 W/m² | - |
| 1778011295 | 16.67° C | 71% | 1021.2 hPa | 0 mm | 0.45 m/s, 223° | 222 W/m² | - |
| 1778010991 | 17.22° C | 70% | 1021 hPa | 0 mm | 1.34 m/s, 248° | 255 W/m² | - |
| 1778010689 | 17.22° C | 70% | 1021.1 hPa | 0 mm | 0.45 m/s, 124° | 243 W/m² | - |
| 1778010386 | 17.22° C | 71% | 1021 hPa | 0 mm | 0.45 m/s, 148° | 278 W/m² | - |
| 1778010082 | 17.22° C | 70% | 1021.1 hPa | 0 mm | 0.89 m/s, 38° | 327 W/m² | - |
| 1778009779 | 16.67° C | 71% | 1021.2 hPa | 0 mm | 0 m/s | 270 W/m² | - |
| 1778009476 | 16.67° C | 72% | 1021.3 hPa | 0 mm | 0.45 m/s, 316° | 248 W/m² | - |
| 1778009174 | 17.22° C | 72% | 1021.2 hPa | 0 mm | 0 m/s | 239 W/m² | - |
| 1778008871 | 17.22° C | 71% | 1021.2 hPa | 0 mm | 0 m/s | 245 W/m² | - |
| 1778008570 | 17.22° C | 70% | 1021.1 hPa | 0 mm | 0 m/s | 239 W/m² | - |
| 1778008267 | 17.22° C | 72% | 1021.2 hPa | 0 mm | 0.45 m/s, 153° | 246 W/m² | - |
| 1778007962 | 16.67° C | 72% | 1021.3 hPa | 0 mm | 0.45 m/s, 176° | 258 W/m² | - |
| 1778007658 | 16.67° C | 72% | 1021.3 hPa | 0 mm | 0 m/s | 252 W/m² | - |
| 1778007355 | 16.67° C | 71% | 1021.2 hPa | 0 mm | 0.45 m/s, 46° | 241 W/m² | - |
| 1778007051 | 16.67° C | 72% | 1021.2 hPa | 0 mm | 0 m/s | 224 W/m² | - |
| 1778006748 | 16.11° C | 73% | 1021.1 hPa | 0 mm | 0 m/s | 255 W/m² | - |
* Rain latest hour (hover to see other rain measurements)
** Current wind speed in m/s (hover to see current wind gust speed)